sensor_id;sensor_type;location;lat;lon;timestamp;P1;durP1;ratioP1;P2;durP2;ratioP2
10295;SDS011;5193;51.032;6.356;2022-11-04T00:00:16;1.80;;;1.33;;
10295;SDS011;5193;51.032;6.356;2022-11-04T00:02:41;4.07;;;1.30;;
10295;SDS011;5193;51.032;6.356;2022-11-04T00:05:07;4.73;;;1.10;;
10295;SDS011;5193;51.032;6.356;2022-11-04T00:07:32;4.93;;;1.70;;
10295;SDS011;5193;51.032;6.356;2022-11-04T00:10:16;2.93;;;1.47;;
10295;SDS011;5193;51.032;6.356;2022-11-04T00:13:02;2.23;;;1.17;;
10295;SDS011;5193;51.032;6.356;2022-11-04T00:15:28;1.33;;;1.13;;
10295;SDS011;5193;51.032;6.356;2022-11-04T00:18:11;2.20;;;1.57;;
10295;SDS011;5193;51.032;6.356;2022-11-04T00:20:37;1.80;;;1.40;;
10295;SDS011;5193;51.032;6.356;2022-11-04T00:23:21;3.67;;;1.57;;
10295;SDS011;5193;51.032;6.356;2022-11-04T00:26:07;1.50;;;1.40;;
10295;SDS011;5193;51.032;6.356;2022-11-04T00:28:51;1.77;;;1.67;;
10295;SDS011;5193;51.032;6.356;2022-11-04T00:31:18;2.10;;;1.77;;
10295;SDS011;5193;51.032;6.356;2022-11-04T00:34:02;3.30;;;1.80;;
10295;SDS011;5193;51.032;6.356;2022-11-04T00:36:27;2.50;;;1.73;;
10295;SDS011;5193;51.032;6.356;2022-11-04T00:38:53;4.03;;;1.80;;
10295;SDS011;5193;51.032;6.356;2022-11-04T00:41:19;5.47;;;1.73;;
10295;SDS011;5193;51.032;6.356;2022-11-04T00:43:51;3.20;;;1.67;;
10295;SDS011;5193;51.032;6.356;2022-11-04T00:46:21;2.50;;;1.63;;
10295;SDS011;5193;51.032;6.356;2022-11-04T00:48:47;1.47;;;1.30;;
10295;SDS011;5193;51.032;6.356;2022-11-04T00:51:13;2.73;;;1.33;;
10295;SDS011;5193;51.032;6.356;2022-11-04T00:53:39;2.37;;;1.60;;
10295;SDS011;5193;51.032;6.356;2022-11-04T00:56:05;2.47;;;1.30;;
10295;SDS011;5193;51.032;6.356;2022-11-04T00:58:30;3.70;;;1.70;;
10295;SDS011;5193;51.032;6.356;2022-11-04T01:00:56;2.37;;;1.40;;
10295;SDS011;5193;51.032;6.356;2022-11-04T01:03:21;3.03;;;1.87;;
10295;SDS011;5193;51.032;6.356;2022-11-04T01:05:47;3.57;;;1.60;;
10295;SDS011;5193;51.032;6.356;2022-11-04T01:08:12;2.00;;;1.50;;
10295;SDS011;5193;51.032;6.356;2022-11-04T01:10:38;1.40;;;1.30;;
10295;SDS011;5193;51.032;6.356;2022-11-04T01:13:09;4.07;;;1.67;;
10295;SDS011;5193;51.032;6.356;2022-11-04T01:15:35;2.47;;;1.53;;
10295;SDS011;5193;51.032;6.356;2022-11-04T01:18:02;3.70;;;1.60;;
10295;SDS011;5193;51.032;6.356;2022-11-04T01:20:28;4.87;;;1.70;;
10295;SDS011;5193;51.032;6.356;2022-11-04T01:22:53;2.20;;;1.93;;
10295;SDS011;5193;51.032;6.356;2022-11-04T01:25:19;5.43;;;1.90;;
10295;SDS011;5193;51.032;6.356;2022-11-04T01:27:44;2.57;;;1.30;;
10295;SDS011;5193;51.032;6.356;2022-11-04T01:30:10;3.27;;;1.60;;
10295;SDS011;5193;51.032;6.356;2022-11-04T01:32:36;3.87;;;1.40;;
10295;SDS011;5193;51.032;6.356;2022-11-04T01:35:02;1.77;;;1.20;;
10295;SDS011;5193;51.032;6.356;2022-11-04T01:37:27;2.53;;;1.67;;
10295;SDS011;5193;51.032;6.356;2022-11-04T01:39:53;6.13;;;1.47;;
10295;SDS011;5193;51.032;6.356;2022-11-04T01:42:22;3.33;;;1.63;;
10295;SDS011;5193;51.032;6.356;2022-11-04T01:44:55;3.13;;;1.30;;
10295;SDS011;5193;51.032;6.356;2022-11-04T01:49:51;2.23;;;1.10;;
10295;SDS011;5193;51.032;6.356;2022-11-04T01:52:22;3.80;;;1.07;;
10295;SDS011;5193;51.032;6.356;2022-11-04T01:54:52;1.50;;;0.87;;
10295;SDS011;5193;51.032;6.356;2022-11-04T01:57:26;6.90;;;1.20;;
10295;SDS011;5193;51.032;6.356;2022-11-04T01:59:59;5.93;;;1.10;;
10295;SDS011;5193;51.032;6.356;2022-11-04T02:02:26;5.97;;;1.10;;
10295;SDS011;5193;51.032;6.356;2022-11-04T02:04:52;4.47;;;1.40;;
10295;SDS011;5193;51.032;6.356;2022-11-04T02:07:17;3.27;;;1.10;;
10295;SDS011;5193;51.032;6.356;2022-11-04T02:09:43;3.20;;;1.23;;
10295;SDS011;5193;51.032;6.356;2022-11-04T02:12:09;3.60;;;1.20;;
10295;SDS011;5193;51.032;6.356;2022-11-04T02:14:53;2.03;;;1.03;;
10295;SDS011;5193;51.032;6.356;2022-11-04T02:19:57;4.07;;;1.07;;
10295;SDS011;5193;51.032;6.356;2022-11-04T02:22:51;3.67;;;1.77;;
10295;SDS011;5193;51.032;6.356;2022-11-04T02:28:25;1.80;;;1.03;;
10295;SDS011;5193;51.032;6.356;2022-11-04T02:31:11;4.13;;;1.47;;
10295;SDS011;5193;51.032;6.356;2022-11-04T02:34:17;4.03;;;1.10;;
10295;SDS011;5193;51.032;6.356;2022-11-04T02:36:57;6.03;;;1.57;;
10295;SDS011;5193;51.032;6.356;2022-11-04T02:39:53;2.60;;;1.20;;
10295;SDS011;5193;51.032;6.356;2022-11-04T02:42:31;5.73;;;1.33;;
10295;SDS011;5193;51.032;6.356;2022-11-04T02:45:09;3.87;;;1.33;;
10295;SDS011;5193;51.032;6.356;2022-11-04T02:47:48;4.40;;;1.30;;
10295;SDS011;5193;51.032;6.356;2022-11-04T02:50:24;5.13;;;1.33;;
10295;SDS011;5193;51.032;6.356;2022-11-04T02:53:02;10.60;;;2.00;;
10295;SDS011;5193;51.032;6.356;2022-11-04T02:55:35;7.63;;;1.30;;
10295;SDS011;5193;51.032;6.356;2022-11-04T02:58:05;2.60;;;1.20;;
10295;SDS011;5193;51.032;6.356;2022-11-04T03:00:38;5.60;;;1.33;;
10295;SDS011;5193;51.032;6.356;2022-11-04T03:03:11;6.53;;;1.30;;
10295;SDS011;5193;51.032;6.356;2022-11-04T03:05:43;5.97;;;1.13;;
10295;SDS011;5193;51.032;6.356;2022-11-04T03:08:14;6.73;;;1.00;;
10295;SDS011;5193;51.032;6.356;2022-11-04T03:10:46;6.27;;;1.20;;
10295;SDS011;5193;51.032;6.356;2022-11-04T03:16:15;3.67;;;1.20;;
10295;SDS011;5193;51.032;6.356;2022-11-04T03:21:21;2.93;;;1.10;;
10295;SDS011;5193;51.032;6.356;2022-11-04T03:23:50;4.63;;;1.40;;
10295;SDS011;5193;51.032;6.356;2022-11-04T03:29:00;6.70;;;1.00;;
10295;SDS011;5193;51.032;6.356;2022-11-04T03:31:55;5.20;;;1.17;;
10295;SDS011;5193;51.032;6.356;2022-11-04T03:34:30;7.47;;;1.70;;
10295;SDS011;5193;51.032;6.356;2022-11-04T03:36:57;4.80;;;1.43;;
10295;SDS011;5193;51.032;6.356;2022-11-04T03:39:23;3.70;;;1.30;;
10295;SDS011;5193;51.032;6.356;2022-11-04T03:41:56;4.60;;;1.60;;
10295;SDS011;5193;51.032;6.356;2022-11-04T03:44:24;6.97;;;1.67;;
10295;SDS011;5193;51.032;6.356;2022-11-04T03:46:53;4.83;;;1.50;;
10295;SDS011;5193;51.032;6.356;2022-11-04T03:49:19;7.67;;;1.83;;
10295;SDS011;5193;51.032;6.356;2022-11-04T03:51:46;3.80;;;1.03;;
10295;SDS011;5193;51.032;6.356;2022-11-04T03:54:12;3.77;;;1.33;;
10295;SDS011;5193;51.032;6.356;2022-11-04T04:02:07;3.53;;;1.27;;
10295;SDS011;5193;51.032;6.356;2022-11-04T04:04:38;7.57;;;1.60;;
10295;SDS011;5193;51.032;6.356;2022-11-04T04:07:22;5.10;;;1.40;;
10295;SDS011;5193;51.032;6.356;2022-11-04T04:09:59;4.60;;;1.10;;
10295;SDS011;5193;51.032;6.356;2022-11-04T04:12:58;6.47;;;1.10;;
10295;SDS011;5193;51.032;6.356;2022-11-04T04:15:30;4.03;;;1.67;;
10295;SDS011;5193;51.032;6.356;2022-11-04T04:18:06;7.47;;;1.20;;
10295;SDS011;5193;51.032;6.356;2022-11-04T04:20:37;8.53;;;1.53;;
10295;SDS011;5193;51.032;6.356;2022-11-04T04:23:12;5.63;;;1.40;;
10295;SDS011;5193;51.032;6.356;2022-11-04T04:26:04;2.97;;;1.00;;
10295;SDS011;5193;51.032;6.356;2022-11-04T04:28:50;4.67;;;1.07;;
10295;SDS011;5193;51.032;6.356;2022-11-04T04:31:17;4.33;;;1.40;;
10295;SDS011;5193;51.032;6.356;2022-11-04T04:34:03;4.30;;;1.43;;
10295;SDS011;5193;51.032;6.356;2022-11-04T04:36:29;6.80;;;1.30;;
10295;SDS011;5193;51.032;6.356;2022-11-04T04:39:01;7.90;;;1.50;;
10295;SDS011;5193;51.032;6.356;2022-11-04T04:41:48;5.33;;;1.20;;
10295;SDS011;5193;51.032;6.356;2022-11-04T04:44:33;4.60;;;1.20;;
10295;SDS011;5193;51.032;6.356;2022-11-04T04:47:18;5.23;;;1.23;;
10295;SDS011;5193;51.032;6.356;2022-11-04T04:49:51;2.17;;;1.00;;
10295;SDS011;5193;51.032;6.356;2022-11-04T04:52:18;5.67;;;1.40;;
10295;SDS011;5193;51.032;6.356;2022-11-04T04:54:45;4.33;;;1.20;;
10295;SDS011;5193;51.032;6.356;2022-11-04T04:57:10;4.73;;;1.20;;
10295;SDS011;5193;51.032;6.356;2022-11-04T04:59:36;3.37;;;1.27;;
10295;SDS011;5193;51.032;6.356;2022-11-04T05:02:01;1.83;;;1.00;;
10295;SDS011;5193;51.032;6.356;2022-11-04T05:04:27;3.73;;;1.10;;
10295;SDS011;5193;51.032;6.356;2022-11-04T05:06:53;2.93;;;0.97;;
10295;SDS011;5193;51.032;6.356;2022-11-04T05:09:19;8.40;;;1.30;;
10295;SDS011;5193;51.032;6.356;2022-11-04T05:11:44;4.20;;;1.10;;
10295;SDS011;5193;51.032;6.356;2022-11-04T05:14:10;2.00;;;1.00;;
10295;SDS011;5193;51.032;6.356;2022-11-04T05:16:35;2.07;;;0.90;;
10295;SDS011;5193;51.032;6.356;2022-11-04T05:19:01;2.53;;;0.90;;
10295;SDS011;5193;51.032;6.356;2022-11-04T05:21:26;2.37;;;0.80;;
10295;SDS011;5193;51.032;6.356;2022-11-04T05:23:52;3.10;;;1.10;;
10295;SDS011;5193;51.032;6.356;2022-11-04T05:26:18;2.03;;;0.77;;
10295;SDS011;5193;51.032;6.356;2022-11-04T05:28:45;4.90;;;1.33;;
10295;SDS011;5193;51.032;6.356;2022-11-04T05:31:11;5.03;;;1.33;;
10295;SDS011;5193;51.032;6.356;2022-11-04T05:33:36;3.80;;;1.33;;
10295;SDS011;5193;51.032;6.356;2022-11-04T05:36:06;3.97;;;1.50;;
10295;SDS011;5193;51.032;6.356;2022-11-04T05:38:32;4.93;;;1.30;;
10295;SDS011;5193;51.032;6.356;2022-11-04T05:40:58;2.77;;;1.10;;
10295;SDS011;5193;51.032;6.356;2022-11-04T05:43:23;3.63;;;1.43;;
10295;SDS011;5193;51.032;6.356;2022-11-04T05:45:49;8.23;;;5.13;;
10295;SDS011;5193;51.032;6.356;2022-11-04T05:48:15;9.97;;;6.13;;
10295;SDS011;5193;51.032;6.356;2022-11-04T05:50:40;7.90;;;1.83;;
10295;SDS011;5193;51.032;6.356;2022-11-04T05:53:06;3.27;;;1.70;;
10295;SDS011;5193;51.032;6.356;2022-11-04T05:55:32;3.87;;;1.53;;
10295;SDS011;5193;51.032;6.356;2022-11-04T05:57:58;5.20;;;1.73;;
10295;SDS011;5193;51.032;6.356;2022-11-04T06:00:24;5.60;;;2.20;;
10295;SDS011;5193;51.032;6.356;2022-11-04T06:02:50;3.87;;;2.17;;
10295;SDS011;5193;51.032;6.356;2022-11-04T06:05:16;5.60;;;1.73;;
10295;SDS011;5193;51.032;6.356;2022-11-04T06:07:42;6.40;;;1.80;;
10295;SDS011;5193;51.032;6.356;2022-11-04T06:10:07;6.03;;;1.77;;
10295;SDS011;5193;51.032;6.356;2022-11-04T06:12:33;4.03;;;2.03;;
10295;SDS011;5193;51.032;6.356;2022-11-04T06:14:59;4.10;;;1.70;;
10295;SDS011;5193;51.032;6.356;2022-11-04T06:17:24;5.63;;;1.97;;
10295;SDS011;5193;51.032;6.356;2022-11-04T06:19:50;2.43;;;1.33;;
10295;SDS011;5193;51.032;6.356;2022-11-04T06:22:16;2.03;;;1.27;;
10295;SDS011;5193;51.032;6.356;2022-11-04T06:24:43;3.10;;;1.70;;
10295;SDS011;5193;51.032;6.356;2022-11-04T06:27:09;1.85;;;1.30;;
10295;SDS011;5193;51.032;6.356;2022-11-04T06:29:35;6.53;;;1.80;;
10295;SDS011;5193;51.032;6.356;2022-11-04T06:32:06;3.53;;;1.70;;
10295;SDS011;5193;51.032;6.356;2022-11-04T06:34:39;3.50;;;1.40;;
10295;SDS011;5193;51.032;6.356;2022-11-04T06:37:05;2.50;;;1.23;;
10295;SDS011;5193;51.032;6.356;2022-11-04T06:39:31;3.83;;;1.50;;
10295;SDS011;5193;51.032;6.356;2022-11-04T06:41:56;3.57;;;1.33;;
10295;SDS011;5193;51.032;6.356;2022-11-04T06:44:22;2.30;;;1.37;;
10295;SDS011;5193;51.032;6.356;2022-11-04T06:46:48;2.73;;;1.40;;
10295;SDS011;5193;51.032;6.356;2022-11-04T06:49:18;3.73;;;1.47;;
10295;SDS011;5193;51.032;6.356;2022-11-04T06:51:46;4.63;;;1.40;;
10295;SDS011;5193;51.032;6.356;2022-11-04T06:54:12;5.07;;;1.70;;
10295;SDS011;5193;51.032;6.356;2022-11-04T06:56:39;2.90;;;1.60;;
10295;SDS011;5193;51.032;6.356;2022-11-04T06:59:05;5.33;;;1.90;;
10295;SDS011;5193;51.032;6.356;2022-11-04T07:01:32;5.23;;;1.93;;
10295;SDS011;5193;51.032;6.356;2022-11-04T07:04:00;3.37;;;1.83;;
10295;SDS011;5193;51.032;6.356;2022-11-04T07:06:29;5.23;;;1.70;;
10295;SDS011;5193;51.032;6.356;2022-11-04T07:08:56;4.70;;;2.20;;
10295;SDS011;5193;51.032;6.356;2022-11-04T07:11:23;5.27;;;2.47;;
10295;SDS011;5193;51.032;6.356;2022-11-04T07:13:49;5.13;;;2.00;;
10295;SDS011;5193;51.032;6.356;2022-11-04T07:16:16;7.27;;;2.53;;
10295;SDS011;5193;51.032;6.356;2022-11-04T07:18:42;7.60;;;2.10;;
10295;SDS011;5193;51.032;6.356;2022-11-04T07:21:07;3.50;;;2.00;;
10295;SDS011;5193;51.032;6.356;2022-11-04T07:23:34;8.20;;;1.90;;
10295;SDS011;5193;51.032;6.356;2022-11-04T07:26:00;7.20;;;2.00;;
10295;SDS011;5193;51.032;6.356;2022-11-04T07:28:26;5.97;;;2.53;;
10295;SDS011;5193;51.032;6.356;2022-11-04T07:30:54;11.30;;;4.60;;
10295;SDS011;5193;51.032;6.356;2022-11-04T07:33:20;8.17;;;3.27;;
10295;SDS011;5193;51.032;6.356;2022-11-04T07:35:46;5.20;;;2.87;;
10295;SDS011;5193;51.032;6.356;2022-11-04T07:38:11;8.90;;;2.90;;
10295;SDS011;5193;51.032;6.356;2022-11-04T07:40:37;3.50;;;2.30;;
10295;SDS011;5193;51.032;6.356;2022-11-04T07:43:03;5.57;;;2.53;;
10295;SDS011;5193;51.032;6.356;2022-11-04T07:45:28;6.87;;;2.43;;
10295;SDS011;5193;51.032;6.356;2022-11-04T07:47:54;5.93;;;2.37;;
10295;SDS011;5193;51.032;6.356;2022-11-04T07:50:20;6.10;;;2.90;;
10295;SDS011;5193;51.032;6.356;2022-11-04T07:52:45;7.83;;;2.43;;
10295;SDS011;5193;51.032;6.356;2022-11-04T07:55:11;8.80;;;2.70;;
10295;SDS011;5193;51.032;6.356;2022-11-04T07:57:42;8.83;;;3.10;;
10295;SDS011;5193;51.032;6.356;2022-11-04T08:00:09;5.90;;;3.33;;
10295;SDS011;5193;51.032;6.356;2022-11-04T08:02:35;10.43;;;3.60;;
10295;SDS011;5193;51.032;6.356;2022-11-04T08:05:01;10.70;;;4.20;;
10295;SDS011;5193;51.032;6.356;2022-11-04T08:07:26;7.97;;;4.00;;
10295;SDS011;5193;51.032;6.356;2022-11-04T08:09:52;6.60;;;2.50;;
10295;SDS011;5193;51.032;6.356;2022-11-04T08:12:18;4.33;;;2.73;;
10295;SDS011;5193;51.032;6.356;2022-11-04T08:14:46;5.03;;;2.27;;
10295;SDS011;5193;51.032;6.356;2022-11-04T08:17:11;4.83;;;2.17;;
10295;SDS011;5193;51.032;6.356;2022-11-04T08:19:37;8.80;;;2.20;;
10295;SDS011;5193;51.032;6.356;2022-11-04T08:22:02;2.77;;;1.53;;
10295;SDS011;5193;51.032;6.356;2022-11-04T08:24:28;7.30;;;2.10;;
10295;SDS011;5193;51.032;6.356;2022-11-04T08:26:53;8.33;;;2.57;;
10295;SDS011;5193;51.032;6.356;2022-11-04T08:29:19;10.73;;;3.50;;
10295;SDS011;5193;51.032;6.356;2022-11-04T08:31:44;8.17;;;3.30;;
10295;SDS011;5193;51.032;6.356;2022-11-04T08:34:10;5.93;;;2.80;;
10295;SDS011;5193;51.032;6.356;2022-11-04T08:36:37;5.33;;;2.63;;
10295;SDS011;5193;51.032;6.356;2022-11-04T08:39:05;4.60;;;2.70;;
10295;SDS011;5193;51.032;6.356;2022-11-04T08:41:32;9.40;;;2.97;;
10295;SDS011;5193;51.032;6.356;2022-11-04T08:43:58;4.43;;;2.23;;
10295;SDS011;5193;51.032;6.356;2022-11-04T08:46:26;8.40;;;2.30;;
10295;SDS011;5193;51.032;6.356;2022-11-04T08:48:53;5.90;;;2.00;;
10295;SDS011;5193;51.032;6.356;2022-11-04T08:51:20;15.30;;;2.43;;
10295;SDS011;5193;51.032;6.356;2022-11-04T08:53:47;4.97;;;2.50;;
10295;SDS011;5193;51.032;6.356;2022-11-04T08:58:43;9.93;;;2.50;;
10295;SDS011;5193;51.032;6.356;2022-11-04T09:01:10;6.37;;;2.20;;
10295;SDS011;5193;51.032;6.356;2022-11-04T09:03:37;10.70;;;1.97;;
10295;SDS011;5193;51.032;6.356;2022-11-04T09:06:04;11.03;;;2.47;;
10295;SDS011;5193;51.032;6.356;2022-11-04T09:08:35;8.03;;;2.63;;
10295;SDS011;5193;51.032;6.356;2022-11-04T09:11:04;9.17;;;2.80;;
10295;SDS011;5193;51.032;6.356;2022-11-04T09:13:31;9.83;;;3.00;;
10295;SDS011;5193;51.032;6.356;2022-11-04T09:15:57;8.30;;;2.80;;
10295;SDS011;5193;51.032;6.356;2022-11-04T09:18:22;11.13;;;3.07;;
10295;SDS011;5193;51.032;6.356;2022-11-04T09:20:48;5.70;;;2.90;;
10295;SDS011;5193;51.032;6.356;2022-11-04T09:23:14;13.63;;;2.83;;
10295;SDS011;5193;51.032;6.356;2022-11-04T09:25:39;8.03;;;2.27;;
10295;SDS011;5193;51.032;6.356;2022-11-04T09:28:05;18.70;;;2.97;;
10295;SDS011;5193;51.032;6.356;2022-11-04T09:30:31;10.83;;;2.13;;
10295;SDS011;5193;51.032;6.356;2022-11-04T09:32:57;13.77;;;2.87;;
10295;SDS011;5193;51.032;6.356;2022-11-04T09:35:22;8.97;;;2.60;;
10295;SDS011;5193;51.032;6.356;2022-11-04T09:37:48;9.93;;;2.80;;
10295;SDS011;5193;51.032;6.356;2022-11-04T09:40:15;12.33;;;2.30;;
10295;SDS011;5193;51.032;6.356;2022-11-04T09:45:32;8.43;;;2.37;;
10295;SDS011;5193;51.032;6.356;2022-11-04T09:48:03;10.20;;;2.60;;
10295;SDS011;5193;51.032;6.356;2022-11-04T09:50:54;8.50;;;2.67;;
10295;SDS011;5193;51.032;6.356;2022-11-04T09:58:16;5.37;;;1.90;;
10295;SDS011;5193;51.032;6.356;2022-11-04T10:00:43;6.37;;;2.13;;
10295;SDS011;5193;51.032;6.356;2022-11-04T10:03:36;6.50;;;1.77;;
10295;SDS011;5193;51.032;6.356;2022-11-04T10:09:33;6.43;;;1.87;;
10295;SDS011;5193;51.032;6.356;2022-11-04T10:24:06;5.67;;;1.87;;
10295;SDS011;5193;51.032;6.356;2022-11-04T10:26:48;7.40;;;2.10;;
10295;SDS011;5193;51.032;6.356;2022-11-04T10:29:40;10.10;;;2.33;;
10295;SDS011;5193;51.032;6.356;2022-11-04T10:32:20;7.80;;;2.40;;
10295;SDS011;5193;51.032;6.356;2022-11-04T10:35:01;4.67;;;2.23;;
10295;SDS011;5193;51.032;6.356;2022-11-04T10:37:34;7.57;;;2.40;;
10295;SDS011;5193;51.032;6.356;2022-11-04T10:42:53;5.53;;;2.23;;
10295;SDS011;5193;51.032;6.356;2022-11-04T10:45:22;2.37;;;1.50;;
10295;SDS011;5193;51.032;6.356;2022-11-04T10:48:03;8.00;;;1.70;;
10295;SDS011;5193;51.032;6.356;2022-11-04T10:50:41;6.53;;;1.70;;
10295;SDS011;5193;51.032;6.356;2022-11-04T10:53:18;5.00;;;1.90;;
10295;SDS011;5193;51.032;6.356;2022-11-04T10:56:31;4.13;;;1.60;;
10295;SDS011;5193;51.032;6.356;2022-11-04T10:58:46;6.20;;;1.37;;
10295;SDS011;5193;51.032;6.356;2022-11-04T11:01:22;5.40;;;1.57;;
10295;SDS011;5193;51.032;6.356;2022-11-04T11:03:51;7.73;;;1.60;;
10295;SDS011;5193;51.032;6.356;2022-11-04T11:08:59;2.93;;;1.20;;
10295;SDS011;5193;51.032;6.356;2022-11-04T11:14:15;2.63;;;1.30;;
10295;SDS011;5193;51.032;6.356;2022-11-04T11:16:42;4.77;;;1.37;;
10295;SDS011;5193;51.032;6.356;2022-11-04T11:27:50;7.13;;;2.03;;
10295;SDS011;5193;51.032;6.356;2022-11-04T11:30:53;5.10;;;1.80;;
10295;SDS011;5193;51.032;6.356;2022-11-04T11:33:22;5.30;;;1.27;;
10295;SDS011;5193;51.032;6.356;2022-11-04T11:38:25;5.13;;;1.40;;
10295;SDS011;5193;51.032;6.356;2022-11-04T11:40:52;6.00;;;1.53;;
10295;SDS011;5193;51.032;6.356;2022-11-04T11:43:29;4.87;;;1.37;;
10295;SDS011;5193;51.032;6.356;2022-11-04T11:45:57;6.73;;;1.90;;
10295;SDS011;5193;51.032;6.356;2022-11-04T11:48:28;7.07;;;1.60;;
10295;SDS011;5193;51.032;6.356;2022-11-04T11:51:03;3.37;;;1.40;;
10295;SDS011;5193;51.032;6.356;2022-11-04T11:53:29;5.07;;;1.27;;
10295;SDS011;5193;51.032;6.356;2022-11-04T11:56:03;3.83;;;1.20;;
10295;SDS011;5193;51.032;6.356;2022-11-04T11:59:07;5.27;;;1.60;;
10295;SDS011;5193;51.032;6.356;2022-11-04T12:01:44;4.00;;;1.70;;
10295;SDS011;5193;51.032;6.356;2022-11-04T12:04:26;3.97;;;1.40;;
10295;SDS011;5193;51.032;6.356;2022-11-04T12:07:01;6.77;;;2.00;;
10295;SDS011;5193;51.032;6.356;2022-11-04T12:09:36;4.33;;;1.87;;
10295;SDS011;5193;51.032;6.356;2022-11-04T12:15:10;7.03;;;1.40;;
10295;SDS011;5193;51.032;6.356;2022-11-04T12:26:22;4.50;;;1.57;;
10295;SDS011;5193;51.032;6.356;2022-11-04T12:30:00;7.50;;;1.80;;
10295;SDS011;5193;51.032;6.356;2022-11-04T12:32:28;6.17;;;1.80;;
10295;SDS011;5193;51.032;6.356;2022-11-04T12:40:27;6.73;;;1.90;;
10295;SDS011;5193;51.032;6.356;2022-11-04T12:51:45;4.17;;;2.27;;
10295;SDS011;5193;51.032;6.356;2022-11-04T13:00:14;5.27;;;1.30;;
10295;SDS011;5193;51.032;6.356;2022-11-04T13:02:44;6.03;;;1.73;;
10295;SDS011;5193;51.032;6.356;2022-11-04T13:07:56;4.73;;;1.40;;
10295;SDS011;5193;51.032;6.356;2022-11-04T13:10:38;9.80;;;1.77;;
10295;SDS011;5193;51.032;6.356;2022-11-04T13:13:07;6.30;;;1.70;;
10295;SDS011;5193;51.032;6.356;2022-11-04T13:15:42;9.47;;;2.63;;
10295;SDS011;5193;51.032;6.356;2022-11-04T13:18:17;4.67;;;1.57;;
10295;SDS011;5193;51.032;6.356;2022-11-04T13:23:33;6.77;;;1.87;;
10295;SDS011;5193;51.032;6.356;2022-11-04T13:26:04;7.47;;;1.90;;
10295;SDS011;5193;51.032;6.356;2022-11-04T13:28:35;7.47;;;1.60;;
10295;SDS011;5193;51.032;6.356;2022-11-04T13:31:15;5.73;;;1.97;;
10295;SDS011;5193;51.032;6.356;2022-11-04T13:34:05;8.43;;;2.30;;
10295;SDS011;5193;51.032;6.356;2022-11-04T13:36:43;5.93;;;2.07;;
10295;SDS011;5193;51.032;6.356;2022-11-04T13:44:27;6.80;;;2.50;;
10295;SDS011;5193;51.032;6.356;2022-11-04T13:46:56;6.50;;;2.90;;
10295;SDS011;5193;51.032;6.356;2022-11-04T13:49:29;6.00;;;3.47;;
10295;SDS011;5193;51.032;6.356;2022-11-04T13:52:10;6.80;;;3.13;;
10295;SDS011;5193;51.032;6.356;2022-11-04T13:54:42;7.30;;;3.50;;
10295;SDS011;5193;51.032;6.356;2022-11-04T13:57:17;7.33;;;3.00;;
10295;SDS011;5193;51.032;6.356;2022-11-04T14:16:01;4.60;;;2.90;;
10295;SDS011;5193;51.032;6.356;2022-11-04T14:18:55;6.87;;;3.10;;
10295;SDS011;5193;51.032;6.356;2022-11-04T14:21:22;9.20;;;3.23;;
10295;SDS011;5193;51.032;6.356;2022-11-04T14:23:51;5.47;;;3.03;;
10295;SDS011;5193;51.032;6.356;2022-11-04T14:26:43;7.70;;;3.57;;
10295;SDS011;5193;51.032;6.356;2022-11-04T14:29:24;5.33;;;2.87;;
10295;SDS011;5193;51.032;6.356;2022-11-04T14:31:54;8.10;;;3.50;;
10295;SDS011;5193;51.032;6.356;2022-11-04T14:37:16;8.23;;;3.67;;
10295;SDS011;5193;51.032;6.356;2022-11-04T14:39:43;9.10;;;3.13;;
10295;SDS011;5193;51.032;6.356;2022-11-04T14:42:12;7.30;;;2.53;;
10295;SDS011;5193;51.032;6.356;2022-11-04T14:44:58;5.50;;;2.50;;
10295;SDS011;5193;51.032;6.356;2022-11-04T14:47:26;4.60;;;2.50;;
10295;SDS011;5193;51.032;6.356;2022-11-04T14:52:26;7.13;;;2.50;;
10295;SDS011;5193;51.032;6.356;2022-11-04T14:57:38;5.40;;;2.60;;
10295;SDS011;5193;51.032;6.356;2022-11-04T15:00:49;8.00;;;3.27;;
10295;SDS011;5193;51.032;6.356;2022-11-04T15:05:38;7.33;;;2.70;;
10295;SDS011;5193;51.032;6.356;2022-11-04T15:10:56;4.67;;;2.23;;
10295;SDS011;5193;51.032;6.356;2022-11-04T15:13:27;4.30;;;2.07;;
10295;SDS011;5193;51.032;6.356;2022-11-04T15:15:53;7.73;;;2.50;;
10295;SDS011;5193;51.032;6.356;2022-11-04T15:18:21;8.70;;;2.87;;
10295;SDS011;5193;51.032;6.356;2022-11-04T15:20:55;9.63;;;3.00;;
10295;SDS011;5193;51.032;6.356;2022-11-04T15:23:30;6.50;;;2.70;;
10295;SDS011;5193;51.032;6.356;2022-11-04T15:25:59;6.10;;;2.60;;
10295;SDS011;5193;51.032;6.356;2022-11-04T15:28:26;8.03;;;2.80;;
10295;SDS011;5193;51.032;6.356;2022-11-04T15:31:37;5.27;;;2.67;;
10295;SDS011;5193;51.032;6.356;2022-11-04T15:33:48;6.00;;;2.90;;
10295;SDS011;5193;51.032;6.356;2022-11-04T15:36:20;9.60;;;3.13;;
10295;SDS011;5193;51.032;6.356;2022-11-04T15:38:52;9.10;;;3.07;;
10295;SDS011;5193;51.032;6.356;2022-11-04T15:41:26;9.27;;;2.83;;
10295;SDS011;5193;51.032;6.356;2022-11-04T15:44:22;8.60;;;3.97;;
10295;SDS011;5193;51.032;6.356;2022-11-04T15:46:54;10.27;;;4.40;;
10295;SDS011;5193;51.032;6.356;2022-11-04T15:49:22;9.97;;;4.33;;
10295;SDS011;5193;51.032;6.356;2022-11-04T15:51:50;8.43;;;4.40;;
10295;SDS011;5193;51.032;6.356;2022-11-04T15:54:24;13.90;;;4.70;;
10295;SDS011;5193;51.032;6.356;2022-11-04T15:56:55;13.83;;;5.80;;
10295;SDS011;5193;51.032;6.356;2022-11-04T15:59:27;12.83;;;5.40;;
10295;SDS011;5193;51.032;6.356;2022-11-04T16:01:58;20.37;;;9.63;;
10295;SDS011;5193;51.032;6.356;2022-11-04T16:04:26;17.73;;;9.33;;
10295;SDS011;5193;51.032;6.356;2022-11-04T16:07:03;21.93;;;11.13;;
10295;SDS011;5193;51.032;6.356;2022-11-04T16:09:51;10.43;;;6.20;;
10295;SDS011;5193;51.032;6.356;2022-11-04T16:14:55;33.00;;;17.23;;
10295;SDS011;5193;51.032;6.356;2022-11-04T16:17:22;73.87;;;36.50;;
10295;SDS011;5193;51.032;6.356;2022-11-04T16:19:51;20.07;;;8.43;;
10295;SDS011;5193;51.032;6.356;2022-11-04T16:22:25;11.53;;;5.47;;
10295;SDS011;5193;51.032;6.356;2022-11-04T16:24:56;9.20;;;5.13;;
10295;SDS011;5193;51.032;6.356;2022-11-04T16:27:24;11.60;;;5.27;;
10295;SDS011;5193;51.032;6.356;2022-11-04T16:30:15;9.47;;;4.73;;
10295;SDS011;5193;51.032;6.356;2022-11-04T16:35:13;6.20;;;4.47;;
10295;SDS011;5193;51.032;6.356;2022-11-04T16:37:42;8.27;;;4.37;;
10295;SDS011;5193;51.032;6.356;2022-11-04T16:40:08;9.37;;;3.97;;
10295;SDS011;5193;51.032;6.356;2022-11-04T16:42:34;10.30;;;4.60;;
10295;SDS011;5193;51.032;6.356;2022-11-04T16:45:00;13.10;;;4.20;;
10295;SDS011;5193;51.032;6.356;2022-11-04T16:47:27;7.27;;;4.40;;
10295;SDS011;5193;51.032;6.356;2022-11-04T16:50:11;10.00;;;4.57;;
10295;SDS011;5193;51.032;6.356;2022-11-04T16:52:39;10.63;;;4.37;;
10295;SDS011;5193;51.032;6.356;2022-11-04T16:55:05;9.80;;;5.17;;
10295;SDS011;5193;51.032;6.356;2022-11-04T16:57:31;9.53;;;5.13;;
10295;SDS011;5193;51.032;6.356;2022-11-04T16:59:57;10.57;;;4.77;;
10295;SDS011;5193;51.032;6.356;2022-11-04T17:04:55;14.23;;;6.10;;
10295;SDS011;5193;51.032;6.356;2022-11-04T17:07:22;13.17;;;5.63;;
10295;SDS011;5193;51.032;6.356;2022-11-04T17:09:48;8.53;;;6.10;;
10295;SDS011;5193;51.032;6.356;2022-11-04T17:12:13;8.53;;;5.70;;
10295;SDS011;5193;51.032;6.356;2022-11-04T17:14:39;9.10;;;6.47;;
10295;SDS011;5193;51.032;6.356;2022-11-04T17:17:05;15.10;;;7.87;;
10295;SDS011;5193;51.032;6.356;2022-11-04T17:19:31;12.00;;;6.57;;
10295;SDS011;5193;51.032;6.356;2022-11-04T17:21:57;13.10;;;6.23;;
10295;SDS011;5193;51.032;6.356;2022-11-04T17:24:25;10.17;;;6.20;;
10295;SDS011;5193;51.032;6.356;2022-11-04T17:26:51;10.73;;;6.93;;
10295;SDS011;5193;51.032;6.356;2022-11-04T17:29:16;13.43;;;6.30;;
10295;SDS011;5193;51.032;6.356;2022-11-04T17:31:42;11.90;;;6.60;;
10295;SDS011;5193;51.032;6.356;2022-11-04T17:34:08;12.53;;;6.93;;
10295;SDS011;5193;51.032;6.356;2022-11-04T17:36:34;14.63;;;8.43;;
10295;SDS011;5193;51.032;6.356;2022-11-04T17:39:00;16.97;;;10.77;;
10295;SDS011;5193;51.032;6.356;2022-11-04T17:41:26;19.10;;;10.00;;
10295;SDS011;5193;51.032;6.356;2022-11-04T17:44:10;16.80;;;9.23;;
10295;SDS011;5193;51.032;6.356;2022-11-04T17:46:36;24.57;;;10.10;;
10295;SDS011;5193;51.032;6.356;2022-11-04T17:49:06;19.33;;;9.40;;